Terminal Aerodrome Forecast
Issued by NWS

Home | Current Version | Previous Version | Text Only | Print | Product List | Glossary On
Versions: 1 2 3 4 5 6 7 8 9 10 11 12 13 14 15 16 17
226
FTUS43 KGRR 240527
TAFLAN
TAF
KLAN 240527Z 2406/2506 VRB03KT P6SM SCT080
     FM241200 36004KT P6SM -SHRA OVC080
     FM241600 34006KT P6SM BKN040
     FM242100 36004KT P6SM SCT040
     FM250400 VRB03KT P6SM BKN040=

USA.gov is the U.S. government's official web portal to all federal, state and local government web resources and services.